Time;durP1;ratioP1;P1;durP2;ratioP2;P2;SDS_P1;SDS_P2;PMS_P1;PMS_P2;Temp;Humidity;BMP_temperature;BMP_pressure;BME280_temperature;BME280_humidity;BME280_pressure;Samples;Min_cycle;Max_cycle;Signal;HPM_P1;HPM_P2
2021/05/15 00:02:01;;;;;;;170.07;24.52;;;20.10;58.20;;;;;;5070484;28;20032;-54
2021/05/15 00:04:29;;;;;;;258.15;37.90;;;20.20;57.70;;;;;;5071093;28;20467;-56
2021/05/15 00:06:56;;;;;;;194.35;32.50;;;20.20;60.90;;;;;;5071169;28;20084;-53
2021/05/15 00:09:23;;;;;;;227.65;32.03;;;20.30;59.20;;;;;;5071174;28;20024;-55
2021/05/15 00:11:51;;;;;;;234.43;35.28;;;20.40;55.90;;;;;;5070914;28;20053;-57
2021/05/15 00:14:18;;;;;;;277.67;40.60;;;20.50;59.30;;;;;;5071759;28;20111;-57
2021/05/15 00:16:46;;;;;;;272.95;47.40;;;20.50;57.40;;;;;;5069803;28;20040;-55
2021/05/15 00:19:13;;;;;;;229.55;37.60;;;20.60;59.30;;;;;;5071220;28;20028;-50
2021/05/15 00:21:40;;;;;;;263.80;42.35;;;20.60;54.70;;;;;;5071406;28;20430;-51
2021/05/15 00:24:08;;;;;;;322.88;55.40;;;20.70;54.60;;;;;;5071466;28;20123;-51
2021/05/15 00:26:36;;;;;;;318.15;54.28;;;20.60;59.50;;;;;;5071867;28;20028;-53
2021/05/15 00:29:04;;;;;;;315.13;54.60;;;20.50;60.00;;;;;;5075014;28;20420;-51
2021/05/15 00:31:31;;;;;;;320.35;56.40;;;20.50;59.10;;;;;;5075358;28;20048;-52
2021/05/15 00:33:58;;;;;;;310.60;53.08;;;20.50;59.30;;;;;;5075119;28;20104;-52
2021/05/15 00:36:26;;;;;;;251.65;43.85;;;20.40;60.40;;;;;;5075416;28;20435;-54
2021/05/15 00:38:53;;;;;;;309.50;54.58;;;20.50;58.80;;;;;;5075482;28;20021;-53
2021/05/15 00:41:20;;;;;;;300.55;50.67;;;20.50;60.80;;;;;;5075146;28;20075;-54
2021/05/15 00:46:48;;;;;;;242.68;43.97;;;20.50;61.10;;;;;;5051952;28;20048;-54
2021/05/15 00:49:15;;;;;;;236.50;42.75;;;20.60;58.70;;;;;;5074544;28;20406;-51
2021/05/15 00:51:43;;;;;;;309.27;53.22;;;20.70;59.90;;;;;;5075028;28;20028;-53
2021/05/15 00:54:12;;;;;;;201.63;37.00;;;20.90;59.30;;;;;;5074685;28;20052;-51
2021/05/15 00:56:40;;;;;;;279.17;49.30;;;21.00;54.90;;;;;;5074807;28;20191;-49
2021/05/15 00:59:07;;;;;;;261.50;48.60;;;21.00;56.80;;;;;;5071572;28;20021;-60
2021/05/15 01:01:34;;;;;;;258.48;46.00;;;21.20;57.80;;;;;;5073801;28;20020;-57
2021/05/15 01:04:02;;;;;;;194.30;36.95;;;21.40;58.20;;;;;;5074211;28;20051;-57
2021/05/15 01:06:29;;;;;;;255.93;45.70;;;21.40;54.90;;;;;;5074763;28;20024;-59
2021/05/15 01:08:57;;;;;;;246.95;45.40;;;21.40;57.80;;;;;;5073852;28;20109;-56
2021/05/15 01:11:25;;;;;;;245.85;43.10;;;21.30;53.90;;;;;;5072591;28;20044;-60
2021/05/15 01:13:57;;;;;;;214.35;39.42;;;21.20;57.70;;;;;;5074444;28;20021;-57
2021/05/15 01:16:25;;;;;;;197.85;38.33;;;21.00;55.80;;;;;;5073862;28;20054;-58
2021/05/15 01:18:53;;;;;;;156.35;32.75;;;21.00;56.70;;;;;;5074161;28;20033;-55
2021/05/15 01:21:21;;;;;;;152.90;29.05;;;20.90;54.10;;;;;;5073856;28;20062;-55
2021/05/15 01:23:48;;;;;;;179.18;35.30;;;20.80;54.50;;;;;;5074718;28;20021;-57
2021/05/15 01:26:26;;;;;;;196.52;38.22;;;20.80;56.10;;;;;;5074595;28;20123;-55
2021/05/15 01:28:56;;;;;;;208.25;37.83;;;20.70;59.00;;;;;;5072958;28;20028;-53
2021/05/15 01:31:24;;;;;;;203.95;39.72;;;20.60;56.00;;;;;;5072941;28;20431;-56
2021/05/15 01:33:52;;;;;;;185.70;35.20;;;20.60;57.50;;;;;;5074034;28;20047;-58
2021/05/15 01:36:21;;;;;;;154.00;31.20;;;20.50;57.30;;;;;;5073998;28;20033;-56
2021/05/15 01:38:49;;;;;;;152.85;31.80;;;20.40;56.90;;;;;;5073441;28;20103;-55
2021/05/15 01:41:18;;;;;;;168.05;31.67;;;20.40;56.20;;;;;;5073715;28;20170;-58
2021/05/15 01:43:46;;;;;;;160.30;31.00;;;20.30;56.00;;;;;;5073580;28;20449;-58
2021/05/15 01:46:15;;;;;;;127.07;28.10;;;20.20;56.60;;;;;;5074197;28;20109;-57
2021/05/15 01:48:42;;;;;;;152.63;33.63;;;20.20;56.90;;;;;;5073630;28;20021;-57
2021/05/15 01:51:12;;;;;;;144.70;27.30;;;20.20;58.60;;;;;;5073395;28;20035;-57
2021/05/15 01:53:48;;;;;;;151.95;27.35;;;20.20;59.40;;;;;;5073552;28;20134;-55
2021/05/15 01:56:18;;;;;;;145.00;30.08;;;20.20;59.90;;;;;;5073831;28;20193;-54
2021/05/15 01:58:46;;;;;;;168.15;32.00;;;20.40;59.30;;;;;;5073088;28;20055;-58
2021/05/15 02:01:13;;;;;;;136.63;31.95;;;20.60;58.20;;;;;;5073338;28;20165;-52
2021/05/15 02:03:42;;;;;;;155.88;27.73;;;20.70;58.90;;;;;;5073739;28;20047;-54
2021/05/15 02:06:10;;;;;;;144.05;28.17;;;20.90;56.30;;;;;;5073171;28;20021;-58
2021/05/15 02:08:38;;;;;;;122.78;23.77;;;21.10;58.50;;;;;;5073216;28;20114;-50
2021/05/15 02:11:06;;;;;;;169.18;32.00;;;21.20;53.60;;;;;;5072624;28;20462;-53
2021/05/15 02:13:33;;;;;;;99.18;21.95;;;21.10;58.70;;;;;;5072728;28;20059;-53
2021/05/15 02:16:01;;;;;;;146.50;30.02;;;21.20;55.90;;;;;;5073053;28;20111;-57
2021/05/15 02:18:29;;;;;;;108.75;23.70;;;21.10;54.70;;;;;;5072424;28;20055;-55
2021/05/15 02:20:57;;;;;;;107.57;24.20;;;21.10;53.20;;;;;;5072945;28;20033;-57
2021/05/15 02:23:25;;;;;;;116.10;26.60;;;21.10;54.90;;;;;;5072107;28;20025;-55
2021/05/15 02:25:55;;;;;;;102.28;21.15;;;21.00;54.60;;;;;;5072799;28;20020;-56
2021/05/15 02:28:23;;;;;;;134.95;26.63;;;20.90;56.10;;;;;;5072841;28;20209;-53
2021/05/15 02:30:51;;;;;;;118.45;25.13;;;20.80;58.10;;;;;;5072855;28;20074;-52
2021/05/15 02:33:18;;;;;;;108.22;24.13;;;20.80;56.80;;;;;;5072385;28;20024;-55
2021/05/15 02:35:47;;;;;;;101.38;22.98;;;20.70;56.00;;;;;;5072166;28;20083;-55
2021/05/15 02:38:16;;;;;;;142.38;28.23;;;20.60;59.60;;;;;;5072728;28;20029;-54
2021/05/15 02:40:45;;;;;;;105.13;24.35;;;20.50;60.70;;;;;;5072344;28;20137;-51
2021/05/15 02:43:14;;;;;;;120.25;23.50;;;20.40;58.90;;;;;;5071083;28;20020;-54
2021/05/15 02:45:42;;;;;;;106.35;23.40;;;20.30;59.20;;;;;;5070730;28;20020;-55
2021/05/15 02:48:09;;;;;;;102.10;22.30;;;20.20;60.20;;;;;;5070841;28;20036;-57
2021/05/15 02:50:37;;;;;;;83.97;22.35;;;20.10;59.10;;;;;;5071658;28;20062;-57
2021/05/15 02:53:04;;;;;;;84.57;19.48;;;20.10;60.20;;;;;;5070246;28;20020;-53
2021/05/15 02:55:31;;;;;;;108.60;24.45;;;20.00;60.80;;;;;;5071952;28;20224;-55
2021/05/15 02:57:59;;;;;;;95.63;24.35;;;19.90;62.10;;;;;;5072163;28;20055;-61
2021/05/15 03:00:28;;;;;;;103.07;21.10;;;19.90;62.10;;;;;;5072359;28;20028;-58
2021/05/15 03:02:57;;;;;;;92.25;21.70;;;19.80;62.60;;;;;;5072119;28;20044;-56
2021/05/15 03:05:26;;;;;;;83.03;17.25;;;19.80;61.50;;;;;;5065726;28;20039;-53
2021/05/15 03:07:54;;;;;;;84.78;20.33;;;19.80;62.10;;;;;;5070093;28;20028;-54
2021/05/15 03:10:24;;;;;;;85.80;19.50;;;19.80;60.00;;;;;;5067646;28;20127;-51
2021/05/15 03:12:54;;;;;;;89.40;21.05;;;19.80;62.10;;;;;;5070876;28;20032;-54
2021/05/15 03:15:22;;;;;;;78.65;18.20;;;19.80;62.10;;;;;;5068137;28;20089;-49
2021/05/15 03:17:52;;;;;;;80.25;20.75;;;19.80;62.10;;;;;;5067662;28;20056;-52
2021/05/15 03:20:23;;;;;;;78.78;20.40;;;19.90;62.00;;;;;;5066056;28;20094;-47
2021/05/15 03:22:51;;;;;;;78.72;19.65;;;20.00;62.20;;;;;;5069609;28;20436;-52
2021/05/15 03:25:20;;;;;;;67.35;16.35;;;20.10;61.90;;;;;;5069218;28;20020;-48
2021/05/15 03:27:48;;;;;;;78.95;17.63;;;20.30;61.90;;;;;;5069011;28;20032;-50
2021/05/15 03:30:17;;;;;;;67.88;18.20;;;20.40;62.10;;;;;;5065597;28;20540;-48
2021/05/15 03:32:45;;;;;;;60.35;15.23;;;20.50;59.50;;;;;;5071783;28;20395;-51
2021/05/15 03:35:13;;;;;;;56.10;14.93;;;20.50;56.00;;;;;;5071817;28;20024;-43
2021/05/15 03:37:41;;;;;;;72.85;15.70;;;20.50;58.70;;;;;;5071294;28;20028;-51
2021/05/15 03:40:10;;;;;;;66.97;18.45;;;20.40;57.90;;;;;;5069374;28;20418;-51
2021/05/15 03:42:38;;;;;;;65.35;15.70;;;20.40;60.60;;;;;;5069264;28;20051;-50
2021/05/15 03:45:07;;;;;;;55.75;14.20;;;20.30;59.10;;;;;;5070213;28;20031;-48
2021/05/15 03:47:36;;;;;;;65.43;17.40;;;20.30;58.20;;;;;;5070376;28;20028;-49
2021/05/15 03:50:04;;;;;;;52.58;15.88;;;20.20;60.10;;;;;;5070781;28;20025;-53
2021/05/15 03:52:32;;;;;;;47.08;14.63;;;20.10;59.30;;;;;;5071213;28;20028;-52
2021/05/15 03:55:00;;;;;;;71.63;15.85;;;20.10;59.20;;;;;;5071071;28;20062;-51
2021/05/15 03:57:27;;;;;;;48.22;15.65;;;20.10;59.60;;;;;;5071294;28;20412;-46
2021/05/15 03:59:54;;;;;;;57.65;15.48;;;20.20;58.40;;;;;;5071531;28;20032;-54
2021/05/15 04:02:25;;;;;;;50.97;14.77;;;20.30;60.10;;;;;;5071294;28;20028;-58
2021/05/15 04:04:52;;;;;;;45.25;15.40;;;20.40;57.50;;;;;;5072045;28;20021;-52
2021/05/15 04:07:20;;;;;;;49.95;15.20;;;20.60;56.70;;;;;;5071822;28;20027;-49
2021/05/15 04:09:47;;;;;;;47.85;14.50;;;20.70;57.40;;;;;;5071403;28;20150;-49
2021/05/15 04:12:16;;;;;;;44.28;16.55;;;20.80;56.00;;;;;;5071392;28;20550;-55
2021/05/15 04:15:02;;;;;;;36.35;13.93;;;21.10;55.70;;;;;;5071634;28;20061;-52
2021/05/15 04:17:30;;;;;;;44.42;14.18;;;21.30;57.10;;;;;;5069845;28;20471;-51
2021/05/15 04:19:58;;;;;;;57.38;16.75;;;21.60;55.90;;;;;;5071424;28;20020;-53
2021/05/15 04:22:27;;;;;;;40.65;14.80;;;21.70;55.40;;;;;;5071812;28;20032;-51
2021/05/15 04:24:55;;;;;;;35.10;12.15;;;21.90;54.70;;;;;;5071742;28;20020;-52
2021/05/15 04:27:22;;;;;;;33.28;12.63;;;22.10;52.80;;;;;;5071645;28;20025;-51
2021/05/15 04:29:50;;;;;;;46.78;15.20;;;22.20;54.20;;;;;;5071506;28;20450;-50
2021/05/15 04:32:18;;;;;;;44.58;15.63;;;22.20;55.30;;;;;;5071653;28;20102;-50
2021/05/15 04:34:45;;;;;;;39.15;14.88;;;22.30;52.80;;;;;;5070649;28;20949;-51
2021/05/15 04:37:13;;;;;;;35.30;12.88;;;22.40;54.90;;;;;;5071576;28;20410;-50
2021/05/15 04:39:40;;;;;;;35.75;11.68;;;22.50;54.50;;;;;;5071163;28;20028;-50
2021/05/15 04:42:08;;;;;;;31.92;11.20;;;22.50;51.60;;;;;;5071527;28;20028;-47
2021/05/15 04:44:35;;;;;;;71.05;11.88;;;22.50;52.30;;;;;;5071532;28;20040;-48
2021/05/15 04:47:03;;;;;;;29.73;8.13;;;22.40;50.10;;;;;;5071126;28;20025;-51
2021/05/15 04:49:30;;;;;;;31.45;7.57;;;22.20;48.40;;;;;;5070982;28;20109;-49
2021/05/15 04:51:58;;;;;;;22.42;6.57;;;22.20;52.40;;;;;;5071224;28;20028;-50
2021/05/15 04:54:26;;;;;;;16.08;4.63;;;22.20;49.70;;;;;;5070954;28;20028;-48
2021/05/15 04:56:53;;;;;;;11.43;3.50;;;22.10;49.80;;;;;;5069804;28;20040;-49
2021/05/15 04:59:21;;;;;;;12.93;2.72;;;22.20;46.00;;;;;;5071230;28;20025;-56
2021/05/15 05:01:48;;;;;;;24.75;4.05;;;22.10;44.30;;;;;;5070645;28;20028;-52
2021/05/15 05:04:15;;;;;;;12.43;2.92;;;22.00;44.20;;;;;;5070844;28;20032;-53
2021/05/15 05:06:43;;;;;;;13.02;3.33;;;21.90;45.30;;;;;;5070891;28;20155;-58
2021/05/15 05:09:10;;;;;;;13.07;2.65;;;21.70;45.60;;;;;;5071122;28;20074;-49
2021/05/15 05:11:37;;;;;;;12.10;2.30;;;21.60;45.00;;;;;;5071134;28;20156;-54
2021/05/15 05:14:04;;;;;;;9.02;1.75;;;21.70;43.80;;;;;;5073291;28;20056;-54
2021/05/15 05:16:32;;;;;;;12.95;1.90;;;21.80;43.40;;;;;;5073663;28;20032;-52
2021/05/15 05:18:59;;;;;;;17.02;1.48;;;21.80;41.00;;;;;;5074626;28;20024;-50
2021/05/15 05:21:27;;;;;;;14.73;9.57;;;21.80;43.50;;;;;;5074891;28;20031;-54
2021/05/15 05:23:54;;;;;;;13.65;8.25;;;21.80;41.00;;;;;;5068995;28;20032;-60
2021/05/15 05:26:22;;;;;;;11.23;4.00;;;21.90;41.80;;;;;;5071815;28;20074;-50
2021/05/15 05:28:51;;;;;;;6.38;3.28;;;22.10;39.80;;;;;;5071801;28;20036;-56
2021/05/15 05:31:19;;;;;;;6.47;2.28;;;22.30;40.10;;;;;;5067203;28;20029;-56
2021/05/15 05:33:47;;;;;;;6.10;2.05;;;22.50;38.80;;;;;;5071463;28;20037;-52
2021/05/15 05:36:15;;;;;;;2.65;1.80;;;22.60;39.20;;;;;;5067730;28;20135;-53
2021/05/15 05:38:42;;;;;;;6.18;1.40;;;22.80;38.90;;;;;;5071515;28;20035;-51
2021/05/15 05:41:10;;;;;;;9.15;1.60;;;22.80;38.60;;;;;;5068298;28;20029;-55
2021/05/15 05:43:37;;;;;;;8.20;1.65;;;22.80;38.70;;;;;;5070164;28;20021;-54
2021/05/15 05:46:05;;;;;;;7.75;1.42;;;22.80;38.70;;;;;;5073717;28;20078;-47
2021/05/15 05:48:32;;;;;;;11.90;1.98;;;22.70;39.20;;;;;;5070104;28;20028;-49
2021/05/15 05:51:00;;;;;;;7.38;1.42;;;22.70;39.50;;;;;;5074052;28;20048;-52
2021/05/15 05:53:27;;;;;;;6.05;1.67;;;22.30;39.80;;;;;;5073694;28;20017;-53
2021/05/15 05:55:55;;;;;;;10.70;2.33;;;22.10;40.60;;;;;;5073892;28;20089;-51
2021/05/15 05:58:23;;;;;;;3.97;1.20;;;21.70;42.30;;;;;;5073776;28;20050;-47
2021/05/15 06:00:50;;;;;;;11.45;2.15;;;21.60;41.60;;;;;;5073407;28;20154;-47
2021/05/15 06:03:18;;;;;;;7.15;1.55;;;21.30;41.30;;;;;;5072936;28;20029;-47
2021/05/15 06:05:45;;;;;;;7.57;1.58;;;21.30;41.90;;;;;;5073551;28;20101;-48
2021/05/15 06:08:13;;;;;;;9.50;1.27;;;21.10;41.80;;;;;;5072524;28;20104;-42
2021/05/15 06:10:41;;;;;;;6.97;1.30;;;20.90;40.90;;;;;;5072462;28;20041;-51
2021/05/15 06:13:10;;;;;;;6.90;1.50;;;20.80;42.40;;;;;;5071727;28;20021;-42
2021/05/15 06:15:38;;;;;;;9.75;1.48;;;20.70;43.10;;;;;;5072833;28;20032;-44
2021/05/15 06:18:05;;;;;;;3.55;0.90;;;20.60;41.80;;;;;;5073259;28;20025;-55
2021/05/15 06:20:33;;;;;;;7.30;1.30;;;20.50;41.80;;;;;;5072308;28;20548;-53
2021/05/15 06:23:00;;;;;;;3.35;1.20;;;20.40;42.40;;;;;;5072856;28;20130;-51
2021/05/15 06:25:28;;;;;;;4.20;1.23;;;20.40;42.90;;;;;;5071349;28;20117;-46
2021/05/15 06:27:56;;;;;;;8.48;1.70;;;20.30;41.50;;;;;;5073568;28;20021;-54
2021/05/15 06:30:25;;;;;;;3.67;1.20;;;20.20;43.50;;;;;;5073789;28;20033;-56
2021/05/15 06:32:53;;;;;;;6.07;1.35;;;20.30;43.50;;;;;;5072587;28;20032;-51
2021/05/15 06:35:21;;;;;;;29.20;1.85;;;20.20;43.20;;;;;;5072181;28;20031;-49
2021/05/15 06:37:48;;;;;;;4.80;1.73;;;20.10;43.60;;;;;;5073118;28;20105;-51
2021/05/15 06:40:15;;;;;;;11.20;1.00;;;20.00;44.80;;;;;;5072522;28;20144;-48
2021/05/15 06:42:43;;;;;;;5.57;1.65;;;19.90;43.20;;;;;;5073049;28;20120;-57
2021/05/15 06:45:11;;;;;;;6.00;1.10;;;19.80;42.80;;;;;;5072844;28;20025;-50
2021/05/15 06:47:39;;;;;;;6.40;1.20;;;19.70;44.90;;;;;;5072263;28;20801;-47
2021/05/15 06:50:09;;;;;;;23.65;2.25;;;19.60;44.80;;;;;;5072174;28;20043;-50
2021/05/15 06:52:37;;;;;;;7.72;1.48;;;19.70;44.30;;;;;;5071571;28;20063;-51
2021/05/15 06:55:06;;;;;;;8.95;1.17;;;19.60;43.60;;;;;;5072666;28;20060;-43
2021/05/15 06:57:34;;;;;;;3.67;0.93;;;19.50;43.40;;;;;;5072700;28;20021;-42
2021/05/15 07:00:02;;;;;;;7.28;1.40;;;19.50;44.50;;;;;;5071359;28;20032;-44
2021/05/15 07:02:29;;;;;;;4.75;0.93;;;19.40;45.40;;;;;;5072068;28;20028;-43
2021/05/15 07:04:56;;;;;;;5.70;0.90;;;19.40;46.00;;;;;;5072152;28;20052;-49
2021/05/15 07:07:24;;;;;;;4.68;1.20;;;19.40;44.90;;;;;;5071887;28;20498;-48
2021/05/15 07:09:51;;;;;;;3.50;1.00;;;19.30;45.00;;;;;;5070978;28;20024;-44
2021/05/15 07:12:24;;;;;;;1.85;0.77;;;19.20;45.20;;;;;;5071371;28;20146;-43
2021/05/15 07:14:53;;;;;;;6.97;1.10;;;19.20;47.20;;;;;;5072266;28;20036;-43
2021/05/15 07:17:26;;;;;;;5.72;0.73;;;19.20;46.70;;;;;;5072312;28;20425;-44
2021/05/15 07:19:55;;;;;;;6.28;1.33;;;19.20;46.00;;;;;;5072316;28;20031;-46
2021/05/15 07:22:25;;;;;;;3.42;1.33;;;19.20;46.10;;;;;;5071933;28;20029;-43
2021/05/15 07:24:53;;;;;;;8.48;1.20;;;19.20;46.20;;;;;;5072323;28;20023;-48
2021/05/15 07:27:23;;;;;;;6.72;1.00;;;19.10;46.00;;;;;;5072017;28;20021;-44
2021/05/15 07:29:54;;;;;;;4.75;1.08;;;19.10;46.10;;;;;;5072045;28;20032;-44
2021/05/15 07:32:23;;;;;;;5.22;0.70;;;19.10;47.90;;;;;;5072135;28;20050;-45
2021/05/15 07:34:51;;;;;;;4.43;0.90;;;19.00;47.20;;;;;;5071396;28;20020;-50
2021/05/15 07:37:19;;;;;;;4.20;0.80;;;19.10;47.00;;;;;;5071523;28;20074;-53
2021/05/15 07:39:46;;;;;;;6.53;0.93;;;19.10;47.60;;;;;;5071990;28;20028;-54
2021/05/15 07:42:14;;;;;;;3.75;0.70;;;19.10;47.30;;;;;;5070480;28;20033;-52
2021/05/15 07:44:41;;;;;;;7.95;1.17;;;19.10;46.90;;;;;;5071291;28;20017;-53
2021/05/15 07:47:09;;;;;;;7.57;1.02;;;19.00;47.80;;;;;;5071726;28;20039;-53
2021/05/15 07:49:36;;;;;;;5.93;1.10;;;19.10;48.20;;;;;;5070358;28;20151;-57
2021/05/15 07:52:04;;;;;;;8.57;0.98;;;19.10;46.60;;;;;;5071368;28;20082;-47
2021/05/15 07:54:31;;;;;;;3.85;0.95;;;19.00;46.80;;;;;;5071863;28;20025;-51
2021/05/15 07:56:58;;;;;;;4.75;1.48;;;19.00;48.30;;;;;;5069924;28;20049;-52
2021/05/15 07:59:26;;;;;;;8.35;1.02;;;19.00;47.40;;;;;;5071584;28;20020;-60
2021/05/15 08:01:53;;;;;;;14.23;1.50;;;19.00;46.00;;;;;;5070248;28;20126;-55
2021/05/15 08:04:20;;;;;;;15.23;1.70;;;19.00;48.00;;;;;;5071749;28;20052;-54
2021/05/15 08:06:49;;;;;;;3.00;1.17;;;18.90;46.70;;;;;;5071341;28;20379;-63
2021/05/15 08:09:16;;;;;;;3.85;1.02;;;18.90;47.40;;;;;;5071768;28;20035;-56
2021/05/15 08:11:43;;;;;;;3.85;1.02;;;18.90;47.70;;;;;;5070163;28;20056;-59
2021/05/15 08:14:11;;;;;;;2.65;0.98;;;18.80;46.10;;;;;;5071756;28;20482;-56
2021/05/15 08:16:38;;;;;;;11.82;1.00;;;18.90;46.80;;;;;;5071327;28;20087;-56
2021/05/15 08:19:05;;;;;;;6.47;1.10;;;18.80;47.10;;;;;;5070358;28;20048;-56
2021/05/15 08:21:33;;;;;;;3.65;0.60;;;18.80;47.20;;;;;;5071096;28;20029;-55
2021/05/15 08:24:01;;;;;;;2.90;1.02;;;18.80;47.90;;;;;;5071340;28;20025;-58
2021/05/15 08:26:28;;;;;;;4.07;1.13;;;18.80;48.20;;;;;;5071079;28;20462;-56
2021/05/15 08:28:56;;;;;;;4.47;1.58;;;18.70;48.50;;;;;;5070786;28;20449;-57
2021/05/15 08:31:24;;;;;;;2.67;1.13;;;18.70;49.40;;;;;;5065057;28;20039;-53
2021/05/15 08:33:51;;;;;;;4.40;1.55;;;18.70;48.70;;;;;;5069012;28;20100;-54
2021/05/15 08:36:19;;;;;;;5.18;1.17;;;18.70;49.70;;;;;;5070251;28;20033;-57
2021/05/15 08:38:47;;;;;;;4.22;1.60;;;18.70;49.70;;;;;;5067855;28;20510;-55
2021/05/15 08:41:14;;;;;;;4.93;1.48;;;18.60;50.00;;;;;;5067783;28;20071;-54
2021/05/15 08:43:43;;;;;;;3.08;1.10;;;18.60;50.30;;;;;;5066512;28;20028;-54
2021/05/15 08:46:15;;;;;;;3.40;1.00;;;18.60;50.00;;;;;;5063596;28;20128;-53
2021/05/15 08:48:44;;;;;;;7.78;2.10;;;18.60;50.70;;;;;;5070390;28;20408;-48
2021/05/15 08:51:12;;;;;;;7.05;1.23;;;18.60;50.80;;;;;;5069579;28;20020;-56
2021/05/15 08:53:41;;;;;;;4.53;1.50;;;18.60;50.90;;;;;;5070294;28;21937;-50
2021/05/15 08:56:10;;;;;;;4.40;1.08;;;18.60;50.80;;;;;;5067957;28;20043;-53
2021/05/15 08:58:42;;;;;;;8.23;1.40;;;18.60;51.20;;;;;;5069820;28;20021;-55
2021/05/15 09:01:14;;;;;;;5.25;1.02;;;18.60;51.10;;;;;;5069754;28;20064;-53
2021/05/15 09:03:42;;;;;;;;;;;18.60;51.20;;;;;;5072350;28;20028;-51
2021/05/15 09:06:10;;;;;;;5.00;1.20;;;18.60;51.40;;;;;;5064833;28;19912;-55
2021/05/15 09:08:37;;;;;;;5.45;1.05;;;18.50;51.50;;;;;;5068863;28;20028;-54
2021/05/15 09:11:05;;;;;;;4.40;1.20;;;18.50;51.50;;;;;;5070152;28;20584;-51
2021/05/15 09:13:33;;;;;;;5.10;1.42;;;18.60;51.90;;;;;;5071055;28;20035;-56
2021/05/15 09:16:03;;;;;;;5.38;1.55;;;18.50;51.80;;;;;;5068703;28;20036;-56
2021/05/15 09:18:39;;;;;;;6.60;1.13;;;18.50;51.80;;;;;;5069427;28;20028;-53
2021/05/15 09:21:10;;;;;;;6.47;1.45;;;18.50;52.10;;;;;;5072033;28;20426;-58
2021/05/15 09:23:39;;;;;;;5.70;1.58;;;18.60;52.20;;;;;;5071720;28;20012;-51
2021/05/15 09:26:33;;;;;;;11.90;1.38;;;18.50;52.20;;;;;;5067484;28;21316;-52
2021/05/15 09:29:00;;;;;;;4.07;1.30;;;18.50;52.40;;;;;;5067887;28;20024;-56
2021/05/15 09:31:35;;;;;;;6.25;1.38;;;18.50;52.60;;;;;;5071107;28;20039;-53
2021/05/15 09:34:05;;;;;;;3.72;1.15;;;18.50;52.60;;;;;;5071731;28;20020;-53
2021/05/15 09:36:38;;;;;;;4.20;1.38;;;18.50;52.80;;;;;;5068093;28;20032;-54
2021/05/15 09:39:19;;;;;;;4.55;1.15;;;18.40;52.90;;;;;;5070820;28;20470;-52
2021/05/15 09:41:52;;;;;;;5.03;1.23;;;18.40;52.80;;;;;;5071984;28;20056;-51
2021/05/15 09:44:26;;;;;;;7.93;1.45;;;18.40;53.20;;;;;;5070873;28;20063;-51
2021/05/15 09:46:57;;;;;;;3.42;1.20;;;18.40;53.10;;;;;;5066670;28;20478;-50
2021/05/15 09:49:35;;;;;;;3.25;1.17;;;18.40;53.30;;;;;;5071608;28;20059;-49
2021/05/15 09:52:05;;;;;;;6.25;1.30;;;18.30;53.50;;;;;;5069933;28;20025;-48
2021/05/15 09:54:33;;;;;;;8.27;1.27;;;18.30;53.20;;;;;;5071377;28;20021;-54
2021/05/15 09:57:06;;;;;;;2.50;1.25;;;18.30;53.50;;;;;;5068253;28;20047;-48
2021/05/15 09:59:41;;;;;;;2.35;1.30;;;18.30;53.20;;;;;;5070554;28;20025;-47
2021/05/15 10:02:12;;;;;;;2.33;0.98;;;18.30;53.60;;;;;;5071429;28;20078;-54
2021/05/15 10:04:44;;;;;;;4.60;1.17;;;18.30;53.80;;;;;;5071178;28;20379;-45
2021/05/15 10:07:21;;;;;;;4.90;1.40;;;18.30;54.40;;;;;;5065129;28;20036;-50
2021/05/15 10:09:49;;;;;;;6.45;1.60;;;18.30;53.70;;;;;;5070986;28;20021;-52
2021/05/15 10:12:17;;;;;;;4.35;1.20;;;18.30;54.00;;;;;;5070472;28;20123;-51
2021/05/15 10:14:45;;;;;;;6.22;1.10;;;18.30;54.10;;;;;;5070574;28;20112;-52
2021/05/15 10:17:12;;;;;;;3.50;1.00;;;18.30;54.10;;;;;;5067478;28;20036;-53
2021/05/15 10:19:40;;;;;;;5.28;1.25;;;18.30;54.20;;;;;;5069303;28;20104;-54
2021/05/15 10:22:07;;;;;;;5.05;1.17;;;18.30;54.20;;;;;;5070603;28;20039;-49
2021/05/15 10:24:36;;;;;;;5.53;1.20;;;18.30;54.30;;;;;;5068028;28;20104;-52
2021/05/15 10:27:04;;;;;;;3.92;1.30;;;18.20;54.50;;;;;;5067255;28;20035;-57
2021/05/15 10:29:48;;;;;;;2.13;1.08;;;18.30;54.60;;;;;;5069870;28;20111;-48
2021/05/15 10:32:16;;;;;;;4.30;1.02;;;18.20;54.70;;;;;;5067454;28;20056;-50
2021/05/15 10:34:48;;;;;;;2.13;1.13;;;18.30;54.90;;;;;;5067972;28;20029;-50
2021/05/15 10:37:20;;;;;;;2.80;0.90;;;18.20;54.70;;;;;;5063284;28;20048;-53
2021/05/15 10:39:51;;;;;;;2.28;0.70;;;18.20;54.40;;;;;;5067139;28;20379;-57
2021/05/15 10:42:33;;;;;;;2.05;1.05;;;18.20;54.90;;;;;;5067801;28;20493;-54
2021/05/15 10:45:04;;;;;;;3.40;1.20;;;18.20;55.00;;;;;;5068177;28;20032;-51
2021/05/15 10:47:42;;;;;;;2.78;1.25;;;18.10;54.90;;;;;;5066703;28;20040;-49
2021/05/15 10:50:21;;;;;;;4.35;1.75;;;18.10;55.10;;;;;;5068950;28;20071;-48
2021/05/15 10:52:53;;;;;;;1.95;0.90;;;18.10;55.00;;;;;;5066170;28;20024;-47
2021/05/15 10:55:35;;;;;;;2.55;1.00;;;18.10;55.10;;;;;;5068948;28;20069;-45
2021/05/15 10:58:13;;;;;;;3.20;1.00;;;18.10;55.20;;;;;;5065788;28;20047;-50
2021/05/15 11:00:42;;;;;;;3.13;1.15;;;18.00;55.20;;;;;;5068831;28;20027;-48
2021/05/15 11:03:09;;;;;;;3.13;1.13;;;18.00;55.50;;;;;;5070151;28;20105;-50
2021/05/15 11:05:47;;;;;;;1.98;1.17;;;18.00;55.40;;;;;;5069662;28;20538;-50
2021/05/15 11:08:27;;;;;;;2.83;0.90;;;18.00;55.30;;;;;;5065233;28;20055;-48
2021/05/15 11:11:05;;;;;;;2.95;0.98;;;18.00;55.40;;;;;;5065224;28;20045;-50
2021/05/15 11:13:44;;;;;;;3.47;1.02;;;18.00;55.70;;;;;;5068070;28;20043;-53
2021/05/15 11:16:12;;;;;;;3.78;0.98;;;18.00;55.50;;;;;;5065865;28;20037;-54
2021/05/15 11:18:40;;;;;;;1.95;0.80;;;17.90;55.80;;;;;;5068771;28;20021;-49
2021/05/15 11:21:09;;;;;;;2.38;0.82;;;18.00;55.70;;;;;;5068645;28;20491;-50
2021/05/15 11:23:57;;;;;;;2.17;0.73;;;17.90;56.00;;;;;;5069760;28;20041;-49
2021/05/15 11:26:38;;;;;;;2.72;1.08;;;17.90;55.60;;;;;;5065126;28;20808;-48
2021/05/15 11:29:06;;;;;;;5.80;1.10;;;17.90;55.90;;;;;;5066915;28;20063;-56
2021/05/15 11:31:40;;;;;;;2.60;0.90;;;17.90;56.00;;;;;;5068195;28;20017;-51
2021/05/15 11:34:16;;;;;;;1.73;1.13;;;17.90;55.70;;;;;;5068819;28;20509;-55
2021/05/15 11:36:44;;;;;;;2.35;0.98;;;17.90;55.80;;;;;;5065458;28;20127;-56
2021/05/15 11:39:12;;;;;;;1.70;0.70;;;17.90;55.90;;;;;;5069122;28;20483;-49
2021/05/15 11:41:39;;;;;;;2.03;1.05;;;17.90;55.80;;;;;;5068910;28;20028;-51
2021/05/15 11:44:07;;;;;;;2.20;1.02;;;17.90;56.00;;;;;;5069373;28;20046;-53
2021/05/15 11:46:34;;;;;;;4.97;0.90;;;17.90;56.00;;;;;;5066007;28;20031;-52
2021/05/15 11:49:01;;;;;;;3.33;1.13;;;17.90;56.10;;;;;;5068602;28;20501;-50
2021/05/15 11:51:29;;;;;;;2.33;1.20;;;17.90;56.00;;;;;;5069087;28;20043;-50
2021/05/15 11:53:57;;;;;;;1.55;0.93;;;17.90;56.00;;;;;;5069092;28;20513;-49
2021/05/15 11:56:26;;;;;;;2.17;0.82;;;17.90;56.00;;;;;;5065064;28;20044;-54
2021/05/15 11:59:00;;;;;;;1.77;0.70;;;17.80;56.00;;;;;;5068981;28;20047;-47
2021/05/15 12:01:33;;;;;;;2.53;1.30;;;17.80;56.10;;;;;;5068983;28;20043;-50
2021/05/15 12:04:14;;;;;;;1.67;1.00;;;17.80;56.20;;;;;;5068389;28;20052;-48
2021/05/15 12:06:42;;;;;;;1.88;1.00;;;17.80;56.30;;;;;;5061843;28;20017;-52
2021/05/15 12:09:17;;;;;;;1.70;0.93;;;17.70;56.40;;;;;;5068111;28;20029;-56
2021/05/15 12:11:46;;;;;;;3.67;1.23;;;17.70;56.40;;;;;;5065288;28;20054;-49
2021/05/15 12:14:18;;;;;;;3.90;0.90;;;17.70;56.60;;;;;;5064884;28;20130;-48
2021/05/15 12:16:45;;;;;;;3.33;1.17;;;17.70;56.50;;;;;;5067444;28;20492;-53
2021/05/15 12:19:38;;;;;;;3.63;1.00;;;17.60;56.50;;;;;;5071777;28;20490;-50
2021/05/15 12:22:10;;;;;;;1.60;0.80;;;17.60;56.70;;;;;;5069110;28;20043;-47
2021/05/15 12:24:43;;;;;;;1.95;1.02;;;17.60;56.80;;;;;;5075199;28;20028;-55
2021/05/15 12:27:11;;;;;;;3.25;0.82;;;17.60;56.80;;;;;;5075338;28;20450;-56
2021/05/15 12:29:40;;;;;;;1.83;0.93;;;17.60;57.00;;;;;;5075416;28;20066;-54
2021/05/15 12:32:10;;;;;;;1.45;0.90;;;17.60;57.00;;;;;;5074740;28;20454;-57
2021/05/15 12:34:40;;;;;;;2.00;0.68;;;17.50;57.10;;;;;;5075765;28;20063;-57
2021/05/15 12:37:15;;;;;;;0.68;0.57;;;17.50;57.00;;;;;;5075608;28;20075;-57
2021/05/15 12:39:42;;;;;;;1.45;0.70;;;17.50;57.10;;;;;;5075983;28;20027;-55
2021/05/15 12:42:15;;;;;;;1.83;0.93;;;17.40;57.20;;;;;;5075795;28;20414;-53
2021/05/15 12:44:44;;;;;;;1.80;0.95;;;17.40;57.30;;;;;;5075639;28;20035;-55
2021/05/15 12:47:11;;;;;;;1.95;0.95;;;17.40;57.30;;;;;;5075655;28;20021;-58
2021/05/15 12:49:43;;;;;;;2.78;1.05;;;17.40;57.50;;;;;;5076020;28;20381;-55